Time;durP1;ratioP1;P1;durP2;ratioP2;P2;SDS_P1;SDS_P2;PMS_P1;PMS_P2;Temp;Humidity;BMP_temperature;BMP_pressure;BME280_temperature;BME280_humidity;BME280_pressure;Samples;Min_cycle;Max_cycle;Signal;HPM_P1;HPM_P2
2023/03/21 00:00:56;;;;;;;;;13.33;8.33;;;;;;;;120127;1182;25098;-63
2023/03/21 00:03:25;;;;;;;;;14.67;11.67;;;;;;;;120114;1189;25429;-63
2023/03/21 00:05:53;;;;;;;;;12.00;9.67;;;;;;;;119752;1190;25348;-63
2023/03/21 00:08:24;;;;;;;;;10.00;8.75;;;;;;;;120102;1190;25193;-63
2023/03/21 00:11:00;;;;;;;;;15.75;11.00;;;;;;;;119944;1182;24850;-63
2023/03/21 00:13:32;;;;;;;;;16.25;11.50;;;;;;;;119956;1187;25662;-62
2023/03/21 00:16:15;;;;;;;;;12.00;10.00;;;;;;;;120103;1190;25166;-62
2023/03/21 00:18:56;;;;;;;;;9.00;8.33;;;;;;;;119954;1190;25510;-63
2023/03/21 00:21:27;;;;;;;;;11.00;11.00;;;;;;;;119937;1183;25274;-63
2023/03/21 00:24:15;;;;;;;;;12.75;10.50;;;;;;;;119955;1189;25403;-63
2023/03/21 00:26:43;;;;;;;;;8.33;8.33;;;;;;;;120090;1190;25530;-62
2023/03/21 00:29:12;;;;;;;;;11.50;10.50;;;;;;;;120093;1190;25227;-63
2023/03/21 00:31:40;;;;;;;;;15.00;12.00;;;;;;;;120091;1182;25493;-63
2023/03/21 00:34:08;;;;;;;;;13.25;10.75;;;;;;;;119929;1190;24746;-63
2023/03/21 00:36:37;;;;;;;;;12.50;11.00;;;;;;;;120095;1182;25433;-62
2023/03/21 00:39:06;;;;;;;;;9.33;5.67;;;;;;;;120106;1190;25591;-63
2023/03/21 00:41:34;;;;;;;;;14.75;12.25;;;;;;;;120099;1189;24893;-62
2023/03/21 00:44:14;;;;;;;;;11.25;10.00;;;;;;;;120105;1182;25656;-62
2023/03/21 00:46:43;;;;;;;;;9.25;8.50;;;;;;;;119920;1190;25202;-62
2023/03/21 00:49:32;;;;;;;;;13.75;10.50;;;;;;;;119984;1182;25150;-63
2023/03/21 00:52:01;;;;;;;;;11.00;8.00;;;;;;;;119912;1189;25520;-62
2023/03/21 00:54:45;;;;;;;;;10.25;8.25;;;;;;;;119935;1190;24983;-62
2023/03/21 00:57:13;;;;;;;;;10.25;10.25;;;;;;;;119943;1190;25375;-62
2023/03/21 00:59:41;;;;;;;;;15.25;8.75;;;;;;;;120108;1190;25483;-62
2023/03/21 01:02:13;;;;;;;;;12.75;10.50;;;;;;;;119931;1190;25283;-62
2023/03/21 01:04:42;;;;;;;;;8.50;8.00;;;;;;;;120109;1190;25767;-62
2023/03/21 01:07:10;;;;;;;;;10.50;8.00;;;;;;;;120112;1181;24861;-62
2023/03/21 01:09:38;;;;;;;;;11.50;10.00;;;;;;;;120105;1181;25617;-62
2023/03/21 01:12:06;;;;;;;;;12.25;8.00;;;;;;;;120099;1189;25282;-62
2023/03/21 01:14:35;;;;;;;;;14.00;8.50;;;;;;;;120098;1190;25137;-63
2023/03/21 01:17:04;;;;;;;;;8.00;8.00;;;;;;;;119907;1190;25666;-62
2023/03/21 01:19:32;;;;;;;;;10.33;10.33;;;;;;;;119919;1190;25362;-62
2023/03/21 01:22:18;;;;;;;;;11.33;10.33;;;;;;;;120128;1190;25037;-62
2023/03/21 01:24:46;;;;;;;;;10.00;9.25;;;;;;;;119931;1190;25650;-62
2023/03/21 01:27:25;;;;;;;;;9.75;9.25;;;;;;;;120100;1190;25088;-62
2023/03/21 01:29:53;;;;;;;;;10.50;9.25;;;;;;;;119945;1182;25384;-62
2023/03/21 01:32:21;;;;;;;;;14.25;9.75;;;;;;;;120118;1190;25382;-63
2023/03/21 01:34:50;;;;;;;;;9.75;9.00;;;;;;;;120100;1190;25560;-62
2023/03/21 01:37:18;;;;;;;;;11.50;9.00;;;;;;;;120106;1190;25119;-62
2023/03/21 01:39:47;;;;;;;;;12.00;8.33;;;;;;;;120101;1190;25608;-62
2023/03/21 01:42:15;;;;;;;;;10.50;9.25;;;;;;;;119918;1190;25122;-62
2023/03/21 01:45:03;;;;;;;;;12.50;10.25;;;;;;;;119949;1190;25341;-62
2023/03/21 01:47:31;;;;;;;;;8.67;8.67;;;;;;;;120091;1185;25457;-63
2023/03/21 01:50:01;;;;;;;;;8.00;7.25;;;;;;;;120101;1190;25430;-62
2023/03/21 01:52:36;;;;;;;;;11.25;10.75;;;;;;;;119910;1190;25613;-62
2023/03/21 01:55:10;;;;;;;;;13.25;9.75;;;;;;;;119941;1190;25273;-63
2023/03/21 01:57:45;;;;;;;;;11.50;11.00;;;;;;;;119942;1190;25048;-63
2023/03/21 02:00:31;;;;;;;;;15.00;12.50;;;;;;;;119953;1184;25509;-63
2023/03/21 02:03:02;;;;;;;;;11.75;10.25;;;;;;;;119922;1190;26504;-63
2023/03/21 02:05:55;;;;;;;;;10.00;9.00;;;;;;;;119941;1190;25471;-63
2023/03/21 02:08:24;;;;;;;;;13.00;11.33;;;;;;;;119909;1190;25137;-63
2023/03/21 02:11:08;;;;;;;;;10.50;8.25;;;;;;;;119950;1190;25398;-63
2023/03/21 02:13:37;;;;;;;;;10.00;8.00;;;;;;;;119931;1190;25770;-64
2023/03/21 02:16:32;;;;;;;;;13.33;8.00;;;;;;;;119938;1190;25605;-64
2023/03/21 02:19:28;;;;;;;;;16.00;11.67;;;;;;;;120074;1182;25380;-64
2023/03/21 02:22:42;;;;;;;;;10.25;8.00;;;;;;;;120117;1190;25606;-64
2023/03/21 02:25:48;;;;;;;;;9.75;7.00;;;;;;;;120012;1182;25234;-64
2023/03/21 02:28:19;;;;;;;;;11.75;8.25;;;;;;;;120121;1182;24873;-64
2023/03/21 02:31:25;;;;;;;;;9.50;8.00;;;;;;;;120105;1182;25406;-65
2023/03/21 02:34:14;;;;;;;;;9.00;8.00;;;;;;;;120107;1182;25063;-64
2023/03/21 02:36:56;;;;;;;;;10.25;7.50;;;;;;;;120086;1190;25443;-64
2023/03/21 02:39:50;;;;;;;;;10.00;9.33;;;;;;;;120105;1190;25093;-65
2023/03/21 02:42:25;;;;;;;;;13.00;12.00;;;;;;;;119929;1190;24898;-64
2023/03/21 02:45:10;;;;;;;;;12.00;10.00;;;;;;;;119956;1190;25606;-66
2023/03/21 02:47:47;;;;;;;;;11.33;9.67;;;;;;;;119941;1181;24818;-65
2023/03/21 02:50:22;;;;;;;;;8.00;7.25;;;;;;;;119930;1189;24767;-65
2023/03/21 02:52:52;;;;;;;;;8.50;7.25;;;;;;;;119939;1190;25481;-65
2023/03/21 02:55:26;;;;;;;;;11.25;8.00;;;;;;;;119909;1190;25290;-65
2023/03/21 02:57:55;;;;;;;;;9.00;8.00;;;;;;;;120108;1190;25669;-65
2023/03/21 03:00:30;;;;;;;;;12.75;7.50;;;;;;;;119908;1184;24886;-64
2023/03/21 03:02:58;;;;;;;;;12.00;9.50;;;;;;;;119908;1191;25625;-65
2023/03/21 03:05:46;;;;;;;;;8.00;6.50;;;;;;;;119908;1191;24963;-66
2023/03/21 03:08:35;;;;;;;;;11.50;9.25;;;;;;;;119931;1182;25305;-65
2023/03/21 03:11:28;;;;;;;;;7.50;6.50;;;;;;;;119904;1191;24713;-65
2023/03/21 03:14:04;;;;;;;;;9.50;8.00;;;;;;;;119907;1191;25697;-64
2023/03/21 03:17:11;;;;;;;;;11.50;10.00;;;;;;;;119916;1191;25115;-64
2023/03/21 03:19:57;;;;;;;;;11.00;9.00;;;;;;;;119914;1191;24748;-65
2023/03/21 03:22:57;;;;;;;;;10.50;9.50;;;;;;;;119904;1191;24959;-64
2023/03/21 03:25:35;;;;;;;;;10.00;7.67;;;;;;;;119727;1191;25075;-64
2023/03/21 03:28:13;;;;;;;;;10.67;9.67;;;;;;;;119882;1191;25232;-65
2023/03/21 03:30:42;;;;;;;;;8.75;8.75;;;;;;;;119894;1191;25656;-64
2023/03/21 03:33:29;;;;;;;;;13.25;9.75;;;;;;;;119757;1191;25675;-65
2023/03/21 03:35:58;;;;;;;;;12.00;11.00;;;;;;;;119895;1191;25093;-64
2023/03/21 03:38:35;;;;;;;;;10.25;8.00;;;;;;;;119747;1183;25476;-65
2023/03/21 03:41:11;;;;;;;;;10.50;8.25;;;;;;;;119913;1184;24837;-65
2023/03/21 03:43:45;;;;;;;;;9.00;8.00;;;;;;;;119696;1191;25212;-65
2023/03/21 03:46:20;;;;;;;;;8.33;8.33;;;;;;;;119931;1191;25152;-63
2023/03/21 03:48:57;;;;;;;;;11.75;9.50;;;;;;;;119897;1191;25111;-64
2023/03/21 03:51:39;;;;;;;;;8.75;6.50;;;;;;;;119894;1191;24857;-64
2023/03/21 03:54:11;;;;;;;;;6.25;5.75;;;;;;;;119920;1191;25417;-63
2023/03/21 03:56:39;;;;;;;;;9.00;8.25;;;;;;;;119910;1183;24842;-63
2023/03/21 03:59:08;;;;;;;;;11.00;10.00;;;;;;;;119875;1191;25481;-64
2023/03/21 04:01:36;;;;;;;;;8.50;8.00;;;;;;;;119877;1191;24981;-64
2023/03/21 04:04:06;;;;;;;;;10.50;10.00;;;;;;;;119949;1183;25345;-64
2023/03/21 04:06:40;;;;;;;;;12.00;10.00;;;;;;;;119938;1183;25283;-64
2023/03/21 04:09:08;;;;;;;;;11.00;8.75;;;;;;;;119936;1191;25691;-64
2023/03/21 04:11:49;;;;;;;;;7.67;6.67;;;;;;;;119892;1191;25253;-63
2023/03/21 04:14:17;;;;;;;;;10.67;8.67;;;;;;;;119901;1191;25628;-63
2023/03/21 04:16:46;;;;;;;;;9.75;8.00;;;;;;;;119916;1191;24746;-63
2023/03/21 04:19:17;;;;;;;;;9.00;7.67;;;;;;;;119729;1191;25555;-63
2023/03/21 04:21:46;;;;;;;;;4.50;4.00;;;;;;;;119900;1191;25458;-64
2023/03/21 04:24:14;;;;;;;;;8.75;8.75;;;;;;;;119867;1191;25412;-64
2023/03/21 04:26:43;;;;;;;;;8.00;8.00;;;;;;;;119890;1191;25601;-64
2023/03/21 04:29:11;;;;;;;;;5.75;4.75;;;;;;;;119942;1190;24991;-64
2023/03/21 04:31:40;;;;;;;;;13.50;9.00;;;;;;;;119892;1191;25055;-64
2023/03/21 04:34:11;;;;;;;;;9.50;8.00;;;;;;;;119892;1191;25188;-64
2023/03/21 04:36:43;;;;;;;;;9.67;7.67;;;;;;;;119909;1183;24718;-64
2023/03/21 04:39:12;;;;;;;;;8.25;7.25;;;;;;;;119921;1191;25680;-64
2023/03/21 04:41:42;;;;;;;;;11.00;8.00;;;;;;;;119725;1191;24845;-64
2023/03/21 04:44:12;;;;;;;;;12.25;9.75;;;;;;;;119944;1190;25641;-64
2023/03/21 04:46:40;;;;;;;;;9.67;9.67;;;;;;;;119926;1182;24952;-64
2023/03/21 04:49:09;;;;;;;;;11.50;8.50;;;;;;;;120106;1182;25465;-64
2023/03/21 04:51:37;;;;;;;;;10.67;10.67;;;;;;;;120098;1190;25089;-64
2023/03/21 04:54:06;;;;;;;;;11.75;10.00;;;;;;;;120101;1190;25538;-64
2023/03/21 04:56:35;;;;;;;;;8.50;7.25;;;;;;;;120111;1190;25901;-64
2023/03/21 04:59:09;;;;;;;;;12.00;9.75;;;;;;;;120097;1190;25638;-64
2023/03/21 05:01:40;;;;;;;;;9.00;9.00;;;;;;;;119944;1182;25405;-65
2023/03/21 05:04:09;;;;;;;;;12.00;12.00;;;;;;;;119942;1190;25556;-64
2023/03/21 05:06:37;;;;;;;;;11.00;10.00;;;;;;;;119916;1190;25810;-64
2023/03/21 05:09:05;;;;;;;;;11.25;10.00;;;;;;;;120019;1186;25476;-64
2023/03/21 05:11:36;;;;;;;;;10.75;6.50;;;;;;;;120049;1186;24733;-63
2023/03/21 05:14:06;;;;;;;;;12.75;11.50;;;;;;;;120070;1186;25264;-64
2023/03/21 05:16:35;;;;;;;;;7.50;7.50;;;;;;;;119930;1187;25529;-64
2023/03/21 05:19:03;;;;;;;;;10.33;8.00;;;;;;;;120005;1190;24877;-64
2023/03/21 05:21:40;;;;;;;;;7.33;7.33;;;;;;;;120022;1182;25649;-64
2023/03/21 05:24:12;;;;;;;;;13.50;10.00;;;;;;;;119830;1188;25071;-64
2023/03/21 05:26:42;;;;;;;;;10.50;10.50;;;;;;;;120008;1186;25195;-64
2023/03/21 05:29:10;;;;;;;;;10.50;9.25;;;;;;;;119903;1187;25436;-64
2023/03/21 05:31:38;;;;;;;;;11.75;10.00;;;;;;;;120000;1187;25481;-64
2023/03/21 05:34:06;;;;;;;;;9.00;9.00;;;;;;;;119917;1183;25374;-64
2023/03/21 05:36:35;;;;;;;;;13.75;11.00;;;;;;;;120026;1182;25104;-64
2023/03/21 05:39:03;;;;;;;;;13.00;11.00;;;;;;;;119935;1188;25193;-64
2023/03/21 05:41:32;;;;;;;;;9.67;8.33;;;;;;;;119963;1182;25784;-64
2023/03/21 05:44:00;;;;;;;;;14.25;11.75;;;;;;;;119992;1190;25001;-64
2023/03/21 05:46:28;;;;;;;;;12.25;10.50;;;;;;;;120005;1186;25016;-63
2023/03/21 05:48:56;;;;;;;;;10.00;9.50;;;;;;;;119939;1187;25603;-63
2023/03/21 05:51:24;;;;;;;;;12.50;11.00;;;;;;;;119998;1187;25285;-64
2023/03/21 05:53:53;;;;;;;;;10.25;9.00;;;;;;;;119962;1182;25613;-63
2023/03/21 05:56:21;;;;;;;;;11.67;10.00;;;;;;;;119923;1190;25399;-67
2023/03/21 05:58:49;;;;;;;;;15.33;10.33;;;;;;;;119890;1191;25326;-64
2023/03/21 06:01:18;;;;;;;;;14.50;11.75;;;;;;;;119921;1191;25583;-64
2023/03/21 06:03:46;;;;;;;;;11.67;9.33;;;;;;;;119918;1191;25269;-63
2023/03/21 06:06:14;;;;;;;;;10.67;8.67;;;;;;;;119918;1191;24853;-64
2023/03/21 06:08:42;;;;;;;;;9.00;9.00;;;;;;;;119879;1191;25289;-65
2023/03/21 06:11:28;;;;;;;;;11.25;7.25;;;;;;;;120011;1182;25263;-64
2023/03/21 06:13:56;;;;;;;;;9.67;8.00;;;;;;;;119946;1183;24875;-66
2023/03/21 06:16:24;;;;;;;;;10.33;10.00;;;;;;;;120100;1182;25493;-63
2023/03/21 06:18:54;;;;;;;;;7.00;7.00;;;;;;;;120064;1185;25445;-65
2023/03/21 06:21:22;;;;;;;;;12.33;10.67;;;;;;;;119912;1190;25427;-64
2023/03/21 06:23:53;;;;;;;;;12.75;10.50;;;;;;;;119918;1190;25601;-64
2023/03/21 06:26:22;;;;;;;;;9.00;9.00;;;;;;;;119903;1191;25046;-63
2023/03/21 06:28:51;;;;;;;;;14.33;11.00;;;;;;;;119898;1191;25161;-64
2023/03/21 06:31:21;;;;;;;;;21.50;17.25;;;;;;;;119936;1182;25446;-63
2023/03/21 06:33:50;;;;;;;;;26.50;22.00;;;;;;;;119902;1191;24830;-61
2023/03/21 06:36:19;;;;;;;;;13.67;12.00;;;;;;;;119880;1191;24680;-61
2023/03/21 06:38:47;;;;;;;;;15.75;14.75;;;;;;;;119913;1191;25087;-61
2023/03/21 06:41:16;;;;;;;;;20.00;13.67;;;;;;;;119904;1191;24940;-61
2023/03/21 06:43:45;;;;;;;;;11.50;11.00;;;;;;;;119888;1183;25630;-61
2023/03/21 06:46:13;;;;;;;;;21.50;14.50;;;;;;;;119904;1191;25898;-61
2023/03/21 06:48:43;;;;;;;;;16.00;13.00;;;;;;;;119913;1191;25637;-61
2023/03/21 06:51:13;;;;;;;;;18.33;14.67;;;;;;;;119918;1191;25211;-61
2023/03/21 06:53:41;;;;;;;;;14.75;13.00;;;;;;;;119874;1191;25616;-61
2023/03/21 06:56:11;;;;;;;;;11.75;10.25;;;;;;;;119887;1183;24999;-61
2023/03/21 06:58:39;;;;;;;;;14.67;11.00;;;;;;;;119894;1191;25543;-61
2023/03/21 07:01:08;;;;;;;;;16.33;12.67;;;;;;;;119895;1183;25624;-61
2023/03/21 07:03:36;;;;;;;;;16.00;12.33;;;;;;;;119892;1191;25258;-60
2023/03/21 07:06:07;;;;;;;;;3.25;3.25;;;;;;;;119870;1191;25002;-60
2023/03/21 07:08:36;;;;;;;;;20.00;15.50;;;;;;;;119877;1188;24729;-60
2023/03/21 07:11:04;;;;;;;;;13.33;10.67;;;;;;;;119904;1191;25608;-61
2023/03/21 07:13:32;;;;;;;;;15.00;14.00;;;;;;;;119876;1191;25463;-60
2023/03/21 07:16:01;;;;;;;;;12.75;11.75;;;;;;;;119903;1182;25202;-61
2023/03/21 07:18:29;;;;;;;;;20.00;11.75;;;;;;;;119899;1191;25443;-62
2023/03/21 07:20:58;;;;;;;;;13.50;11.50;;;;;;;;119907;1182;25431;-62
2023/03/21 07:23:27;;;;;;;;;11.25;11.25;;;;;;;;119890;1191;25373;-62
2023/03/21 07:25:55;;;;;;;;;14.75;13.00;;;;;;;;119724;1183;24840;-63
2023/03/21 07:28:23;;;;;;;;;21.00;13.00;;;;;;;;119893;1191;25539;-58
2023/03/21 07:30:57;;;;;;;;;15.00;8.25;;;;;;;;119821;1183;25273;-60
2023/03/21 07:33:26;;;;;;;;;16.25;13.25;;;;;;;;119860;1188;24782;-62
2023/03/21 07:35:56;;;;;;;;;11.00;11.00;;;;;;;;119869;1191;24826;-66
2023/03/21 07:38:25;;;;;;;;;14.25;10.25;;;;;;;;119923;1191;25652;-63
2023/03/21 07:40:53;;;;;;;;;13.50;13.50;;;;;;;;119912;1183;25516;-63
2023/03/21 07:43:21;;;;;;;;;12.25;11.00;;;;;;;;119892;1191;25135;-60
2023/03/21 07:45:49;;;;;;;;;17.75;10.25;;;;;;;;119911;1191;25673;-62
2023/03/21 07:48:18;;;;;;;;;17.00;16.00;;;;;;;;119897;1191;25585;-62
2023/03/21 07:50:48;;;;;;;;;18.67;11.67;;;;;;;;119862;1191;25582;-60
2023/03/21 07:53:16;;;;;;;;;16.25;11.25;;;;;;;;119866;1191;25571;-60
2023/03/21 07:55:44;;;;;;;;;15.25;12.75;;;;;;;;119917;1191;25186;-60
2023/03/21 07:58:12;;;;;;;;;16.00;12.75;;;;;;;;119982;1179;25171;-60
2023/03/21 08:00:41;;;;;;;;;15.50;11.50;;;;;;;;119934;1191;25251;-60
2023/03/21 08:03:10;;;;;;;;;11.75;11.50;;;;;;;;119904;1191;25373;-60
2023/03/21 08:05:39;;;;;;;;;25.33;17.67;;;;;;;;119925;1182;26155;-60
2023/03/21 08:08:07;;;;;;;;;18.00;11.00;;;;;;;;119896;1191;25339;-60
2023/03/21 08:10:36;;;;;;;;;17.25;13.50;;;;;;;;119914;1191;25269;-60
2023/03/21 08:13:04;;;;;;;;;19.50;14.00;;;;;;;;119899;1182;25625;-60
2023/03/21 08:15:32;;;;;;;;;14.00;12.00;;;;;;;;119896;1191;25418;-60
2023/03/21 08:18:00;;;;;;;;;14.67;10.67;;;;;;;;119895;1191;25400;-60
2023/03/21 08:20:29;;;;;;;;;16.00;13.75;;;;;;;;119892;1191;24781;-60
2023/03/21 08:22:57;;;;;;;;;19.00;14.67;;;;;;;;119907;1191;24969;-60
2023/03/21 08:25:25;;;;;;;;;18.00;14.75;;;;;;;;119912;1183;25016;-60
2023/03/21 08:27:53;;;;;;;;;15.00;14.00;;;;;;;;119917;1191;26744;-60
2023/03/21 08:30:24;;;;;;;;;12.00;10.75;;;;;;;;119908;1191;25235;-60
2023/03/21 08:33:00;;;;;;;;;18.50;13.50;;;;;;;;119908;1191;25038;-60
2023/03/21 08:35:30;;;;;;;;;18.00;14.25;;;;;;;;119901;1191;24823;-60
2023/03/21 08:37:58;;;;;;;;;20.00;16.00;;;;;;;;119903;1191;24888;-60
2023/03/21 08:40:26;;;;;;;;;18.25;13.50;;;;;;;;119909;1191;25603;-60
2023/03/21 08:42:54;;;;;;;;;14.75;13.50;;;;;;;;119913;1191;24862;-60
2023/03/21 08:45:24;;;;;;;;;17.75;15.50;;;;;;;;119903;1182;24675;-60
2023/03/21 08:47:53;;;;;;;;;20.00;17.33;;;;;;;;119893;1191;25240;-59
2023/03/21 08:50:25;;;;;;;;;16.00;13.00;;;;;;;;119915;1191;25493;-60
2023/03/21 08:52:53;;;;;;;;;16.67;16.00;;;;;;;;119884;1191;25996;-59
2023/03/21 08:55:21;;;;;;;;;21.25;17.00;;;;;;;;119911;1187;24843;-60
2023/03/21 08:57:50;;;;;;;;;23.50;18.50;;;;;;;;119885;1191;25597;-60
2023/03/21 09:00:19;;;;;;;;;17.00;15.00;;;;;;;;119937;1183;25421;-60
2023/03/21 09:02:50;;;;;;;;;17.75;17.75;;;;;;;;119893;1191;24764;-60
2023/03/21 09:05:18;;;;;;;;;22.50;18.50;;;;;;;;119857;1191;25169;-60
2023/03/21 09:07:48;;;;;;;;;18.33;16.00;;;;;;;;119887;1191;24802;-59
2023/03/21 09:10:19;;;;;;;;;20.25;18.00;;;;;;;;119909;1191;25461;-59
2023/03/21 09:12:52;;;;;;;;;19.50;15.25;;;;;;;;119909;1183;25164;-59
2023/03/21 09:15:23;;;;;;;;;19.00;16.67;;;;;;;;119923;1191;25539;-60
2023/03/21 09:17:52;;;;;;;;;20.50;11.75;;;;;;;;119888;1191;25399;-60
2023/03/21 09:20:31;;;;;;;;;18.67;15.00;;;;;;;;119921;1191;24873;-60
2023/03/21 09:23:00;;;;;;;;;20.25;15.75;;;;;;;;119903;1191;25363;-60
2023/03/21 09:25:29;;;;;;;;;20.25;19.00;;;;;;;;119907;1191;25190;-60
2023/03/21 09:27:59;;;;;;;;;17.00;13.75;;;;;;;;119901;1191;24753;-60
2023/03/21 09:30:30;;;;;;;;;15.75;15.00;;;;;;;;119893;1191;25522;-60
2023/03/21 09:33:00;;;;;;;;;19.25;17.75;;;;;;;;119915;1182;24951;-60
2023/03/21 09:35:28;;;;;;;;;23.50;19.00;;;;;;;;119873;1187;25573;-59
2023/03/21 09:37:57;;;;;;;;;20.25;17.00;;;;;;;;119870;1191;25369;-60
2023/03/21 09:40:48;;;;;;;;;21.50;17.50;;;;;;;;119879;1191;24779;-60
2023/03/21 09:43:50;;;;;;;;;17.67;17.00;;;;;;;;119896;1191;25650;-60
2023/03/21 09:46:26;;;;;;;;;16.33;15.00;;;;;;;;119930;1191;25615;-59
2023/03/21 09:49:08;;;;;;;;;16.75;14.50;;;;;;;;119906;1182;25568;-59
2023/03/21 09:51:45;;;;;;;;;19.50;16.75;;;;;;;;119921;1191;24767;-60
2023/03/21 09:54:37;;;;;;;;;21.50;18.00;;;;;;;;119864;1191;25466;-60
2023/03/21 09:57:31;;;;;;;;;23.50;16.00;;;;;;;;119869;1190;25344;-59
2023/03/21 10:00:13;;;;;;;;;20.00;16.00;;;;;;;;119932;1183;25413;-60
2023/03/21 10:02:48;;;;;;;;;18.50;14.25;;;;;;;;119920;1182;24705;-60
2023/03/21 10:05:25;;;;;;;;;19.50;15.25;;;;;;;;119901;1187;24919;-60
2023/03/21 10:08:06;;;;;;;;;18.00;14.25;;;;;;;;119879;1191;25414;-60
2023/03/21 10:10:38;;;;;;;;;20.00;15.00;;;;;;;;119905;1191;25397;-60
2023/03/21 10:13:14;;;;;;;;;16.33;11.67;;;;;;;;119907;1191;25076;-59
2023/03/21 10:15:42;;;;;;;;;20.00;16.75;;;;;;;;119900;1191;24979;-60
2023/03/21 10:18:18;;;;;;;;;18.00;15.33;;;;;;;;119926;1182;25625;-59
2023/03/21 10:20:46;;;;;;;;;17.75;16.50;;;;;;;;119941;1182;25022;-60
2023/03/21 10:23:16;;;;;;;;;14.75;12.50;;;;;;;;119856;1191;25220;-60
2023/03/21 10:25:52;;;;;;;;;21.00;17.25;;;;;;;;119917;1191;24938;-60
2023/03/21 10:28:25;;;;;;;;;17.75;16.50;;;;;;;;119871;1191;25441;-60
2023/03/21 10:30:55;;;;;;;;;17.00;15.75;;;;;;;;119866;1191;25038;-59
2023/03/21 10:33:34;;;;;;;;;17.33;16.00;;;;;;;;119882;1191;25245;-60
2023/03/21 10:36:09;;;;;;;;;19.67;15.00;;;;;;;;119900;1182;25094;-60
2023/03/21 10:38:44;;;;;;;;;14.00;13.50;;;;;;;;119931;1191;25290;-60
2023/03/21 10:41:13;;;;;;;;;15.75;14.00;;;;;;;;119920;1191;24932;-60
2023/03/21 10:43:44;;;;;;;;;17.50;14.50;;;;;;;;119875;1183;25116;-60
2023/03/21 10:46:19;;;;;;;;;20.00;16.00;;;;;;;;119897;1191;25283;-60
2023/03/21 10:48:52;;;;;;;;;16.50;16.00;;;;;;;;119897;1191;25738;-59
2023/03/21 10:51:32;;;;;;;;;17.00;16.00;;;;;;;;119882;1191;25362;-60
2023/03/21 10:54:07;;;;;;;;;21.33;15.00;;;;;;;;119891;1191;24823;-59
2023/03/21 10:56:44;;;;;;;;;23.67;17.67;;;;;;;;119932;1182;25236;-59
2023/03/21 10:59:17;;;;;;;;;21.00;19.00;;;;;;;;119931;1187;25567;-60
2023/03/21 11:01:50;;;;;;;;;10.75;10.50;;;;;;;;119889;1191;25603;-60
2023/03/21 11:04:21;;;;;;;;;23.50;20.00;;;;;;;;119909;1191;25392;-60
2023/03/21 11:06:55;;;;;;;;;19.25;15.50;;;;;;;;119870;1191;26055;-60
2023/03/21 11:09:26;;;;;;;;;21.33;17.67;;;;;;;;119882;1191;25729;-59
2023/03/21 11:12:04;;;;;;;;;17.25;15.75;;;;;;;;119894;1191;25533;-60
2023/03/21 11:14:38;;;;;;;;;15.00;15.00;;;;;;;;119896;1191;25145;-59
2023/03/21 11:17:27;;;;;;;;;24.00;17.00;;;;;;;;119923;1191;25313;-60
2023/03/21 11:19:58;;;;;;;;;20.00;17.33;;;;;;;;119908;1191;24780;-59
2023/03/21 11:22:38;;;;;;;;;13.33;13.00;;;;;;;;119939;1179;25315;-60
2023/03/21 11:25:10;;;;;;;;;21.00;20.00;;;;;;;;119882;1191;24798;-60
2023/03/21 11:27:50;;;;;;;;;18.67;18.33;;;;;;;;119890;1191;25348;-59
2023/03/21 11:30:24;;;;;;;;;18.00;17.75;;;;;;;;119925;1182;24866;-59
2023/03/21 11:32:57;;;;;;;;;20.50;17.75;;;;;;;;119892;1191;24926;-59
2023/03/21 11:35:31;;;;;;;;;18.00;14.50;;;;;;;;119912;1183;24746;-59
2023/03/21 11:37:59;;;;;;;;;21.50;18.00;;;;;;;;119901;1191;24885;-59
2023/03/21 11:40:32;;;;;;;;;17.75;15.50;;;;;;;;119910;1191;25088;-59
2023/03/21 11:43:17;;;;;;;;;21.50;19.50;;;;;;;;119881;1191;25004;-59
2023/03/21 11:46:03;;;;;;;;;18.00;16.25;;;;;;;;119905;1183;24794;-59
2023/03/21 11:48:44;;;;;;;;;20.00;17.00;;;;;;;;119908;1191;25634;-60
2023/03/21 11:51:21;;;;;;;;;20.50;17.00;;;;;;;;119915;1191;24643;-59
2023/03/21 11:54:11;;;;;;;;;21.75;16.25;;;;;;;;120019;1190;24756;-59
2023/03/21 11:56:44;;;;;;;;;20.00;17.75;;;;;;;;120105;1190;24962;-59
2023/03/21 11:59:31;;;;;;;;;19.33;17.33;;;;;;;;119932;1190;25508;-59
2023/03/21 12:02:11;;;;;;;;;18.00;16.00;;;;;;;;120098;1190;25649;-59
2023/03/21 12:04:47;;;;;;;;;19.00;16.33;;;;;;;;119942;1190;24845;-59
2023/03/21 12:07:20;;;;;;;;;24.67;18.00;;;;;;;;119917;1190;25454;-59
2023/03/21 12:10:01;;;;;;;;;17.00;17.00;;;;;;;;119934;1190;25617;-59
2023/03/21 12:12:45;;;;;;;;;19.50;15.75;;;;;;;;120111;1190;24776;-59
2023/03/21 12:15:14;;;;;;;;;18.75;16.50;;;;;;;;119938;1190;25786;-59
2023/03/21 12:18:01;;;;;;;;;15.67;12.00;;;;;;;;120116;1190;25132;-59
2023/03/21 12:20:41;;;;;;;;;19.00;16.00;;;;;;;;120104;1186;25207;-59
2023/03/21 12:23:39;;;;;;;;;14.00;12.33;;;;;;;;120112;1182;25157;-59
2023/03/21 12:26:18;;;;;;;;;18.25;17.25;;;;;;;;120076;1190;25519;-59
2023/03/21 12:29:09;;;;;;;;;16.67;15.67;;;;;;;;119938;1190;24875;-59
2023/03/21 12:32:11;;;;;;;;;18.75;16.25;;;;;;;;120109;1190;25367;-59
2023/03/21 12:35:11;;;;;;;;;17.67;15.33;;;;;;;;120099;1184;25370;-60
2023/03/21 12:38:00;;;;;;;;;16.00;16.00;;;;;;;;119947;1190;25443;-59
2023/03/21 12:40:47;;;;;;;;;17.00;14.25;;;;;;;;119940;1190;25016;-59
2023/03/21 12:43:39;;;;;;;;;20.00;19.00;;;;;;;;120117;1190;25230;-59
2023/03/21 12:46:21;;;;;;;;;19.00;17.25;;;;;;;;119952;1190;25155;-59
2023/03/21 12:49:21;;;;;;;;;21.67;17.33;;;;;;;;119914;1190;25583;-59
2023/03/21 12:51:59;;;;;;;;;20.50;18.75;;;;;;;;120109;1190;25101;-59
2023/03/21 12:54:40;;;;;;;;;22.00;18.00;;;;;;;;120093;1190;24899;-59
2023/03/21 12:57:22;;;;;;;;;22.50;18.00;;;;;;;;119914;1190;25057;-59
2023/03/21 13:00:13;;;;;;;;;22.00;20.00;;;;;;;;119920;1189;25462;-59
2023/03/21 13:02:52;;;;;;;;;26.33;17.67;;;;;;;;119921;1190;25010;-59
2023/03/21 13:05:28;;;;;;;;;23.00;19.25;;;;;;;;119954;1190;24910;-59
2023/03/21 13:08:18;;;;;;;;;17.75;17.50;;;;;;;;119935;1190;25253;-59
2023/03/21 13:10:47;;;;;;;;;20.50;19.25;;;;;;;;120099;1190;25000;-59
2023/03/21 13:13:35;;;;;;;;;23.50;19.00;;;;;;;;119933;1190;25689;-60
2023/03/21 13:16:28;;;;;;;;;19.00;16.33;;;;;;;;119903;1189;25510;-59
2023/03/21 13:19:29;;;;;;;;;24.25;20.75;;;;;;;;120086;1190;25321;-59
2023/03/21 13:22:26;;;;;;;;;25.25;18.75;;;;;;;;120093;1182;25650;-59
2023/03/21 13:25:03;;;;;;;;;23.00;20.00;;;;;;;;120076;1190;25260;-59
2023/03/21 13:27:35;;;;;;;;;18.00;18.00;;;;;;;;119921;1190;25374;-60
2023/03/21 13:30:27;;;;;;;;;14.00;12.00;;;;;;;;119919;1190;25484;-59
2023/03/21 13:33:14;;;;;;;;;19.50;16.00;;;;;;;;119934;1182;25368;-59
2023/03/21 13:35:44;;;;;;;;;19.75;18.50;;;;;;;;120085;1190;26153;-59
2023/03/21 13:38:20;;;;;;;;;16.50;15.00;;;;;;;;119916;1190;25294;-59
2023/03/21 13:41:00;;;;;;;;;20.00;20.00;;;;;;;;119927;1190;25200;-59
2023/03/21 13:43:43;;;;;;;;;21.00;20.25;;;;;;;;119960;1190;25652;-59
2023/03/21 13:46:12;;;;;;;;;23.00;19.00;;;;;;;;120089;1190;24940;-59
2023/03/21 13:48:51;;;;;;;;;21.50;16.50;;;;;;;;120106;1181;24739;-59
2023/03/21 13:51:51;;;;;;;;;22.75;18.50;;;;;;;;120108;1185;25078;-59
2023/03/21 13:54:23;;;;;;;;;21.00;19.25;;;;;;;;119932;1190;25123;-59
2023/03/21 13:56:55;;;;;;;;;22.50;18.75;;;;;;;;119933;1190;24824;-59
2023/03/21 13:59:36;;;;;;;;;17.25;15.50;;;;;;;;120119;1190;25337;-59
2023/03/21 14:02:21;;;;;;;;;15.00;15.00;;;;;;;;120104;1183;25770;-59
2023/03/21 14:04:57;;;;;;;;;25.50;19.00;;;;;;;;119914;1190;25538;-59
2023/03/21 14:07:39;;;;;;;;;17.00;17.00;;;;;;;;120093;1190;25264;-59
2023/03/21 14:10:18;;;;;;;;;18.50;18.50;;;;;;;;119925;1190;25239;-59
2023/03/21 14:12:47;;;;;;;;;19.25;16.25;;;;;;;;119949;1190;24736;-59
2023/03/21 14:15:22;;;;;;;;;21.00;18.25;;;;;;;;119941;1190;25155;-59
2023/03/21 14:17:53;;;;;;;;;20.25;18.00;;;;;;;;120103;1190;24901;-59
2023/03/21 14:20:29;;;;;;;;;27.67;22.33;;;;;;;;120107;1190;25201;-59
2023/03/21 14:22:57;;;;;;;;;21.33;20.00;;;;;;;;119925;1190;25053;-59
2023/03/21 14:25:33;;;;;;;;;25.00;20.00;;;;;;;;119929;1190;25794;-59
2023/03/21 14:28:20;;;;;;;;;22.67;18.33;;;;;;;;119940;1190;25452;-59
2023/03/21 14:30:51;;;;;;;;;23.50;19.50;;;;;;;;119943;1182;25560;-59
2023/03/21 14:33:36;;;;;;;;;20.00;17.67;;;;;;;;119921;1190;25435;-59
2023/03/21 14:36:20;;;;;;;;;24.67;21.33;;;;;;;;119910;1190;25599;-59
2023/03/21 14:38:58;;;;;;;;;22.50;18.25;;;;;;;;120101;1190;24901;-59
2023/03/21 14:41:28;;;;;;;;;19.67;19.00;;;;;;;;119938;1190;25390;-59
2023/03/21 14:44:14;;;;;;;;;22.00;17.33;;;;;;;;119938;1183;25207;-59
2023/03/21 14:46:43;;;;;;;;;22.00;20.00;;;;;;;;119911;1190;25601;-59
2023/03/21 14:49:24;;;;;;;;;21.75;20.75;;;;;;;;119911;1190;25392;-59
2023/03/21 14:51:54;;;;;;;;;27.00;22.00;;;;;;;;120075;1190;25180;-59